sensor_id;sensor_type;location;lat;lon;timestamp;temperature;humidity
16901;DHT22;8567;52.540;6.434;2024-01-07T00:00:22;18.60;55.20
16901;DHT22;8567;52.540;6.434;2024-01-07T00:02:49;18.50;55.20
16901;DHT22;8567;52.540;6.434;2024-01-07T00:05:16;18.50;55.20
16901;DHT22;8567;52.540;6.434;2024-01-07T00:07:43;18.60;55.20
16901;DHT22;8567;52.540;6.434;2024-01-07T00:10:11;18.50;55.30
16901;DHT22;8567;52.540;6.434;2024-01-07T00:12:38;18.50;55.30
16901;DHT22;8567;52.540;6.434;2024-01-07T00:15:06;18.50;55.30
16901;DHT22;8567;52.540;6.434;2024-01-07T00:17:33;18.50;55.30
16901;DHT22;8567;52.540;6.434;2024-01-07T00:20:00;18.50;55.30
16901;DHT22;8567;52.540;6.434;2024-01-07T00:22:27;18.50;55.40
16901;DHT22;8567;52.540;6.434;2024-01-07T00:24:54;18.50;55.50
16901;DHT22;8567;52.540;6.434;2024-01-07T00:27:22;18.50;55.50
16901;DHT22;8567;52.540;6.434;2024-01-07T00:29:49;18.50;55.60
16901;DHT22;8567;52.540;6.434;2024-01-07T00:32:16;18.50;55.50
16901;DHT22;8567;52.540;6.434;2024-01-07T00:34:44;18.50;55.60
16901;DHT22;8567;52.540;6.434;2024-01-07T00:37:11;18.50;55.60
16901;DHT22;8567;52.540;6.434;2024-01-07T00:39:37;18.50;55.50
16901;DHT22;8567;52.540;6.434;2024-01-07T00:42:05;18.50;55.40
16901;DHT22;8567;52.540;6.434;2024-01-07T00:44:33;18.50;55.50
16901;DHT22;8567;52.540;6.434;2024-01-07T00:47:00;18.50;55.50
16901;DHT22;8567;52.540;6.434;2024-01-07T00:49:27;18.50;55.60
16901;DHT22;8567;52.540;6.434;2024-01-07T00:51:54;18.50;55.70
16901;DHT22;8567;52.540;6.434;2024-01-07T00:54:21;18.50;55.70
16901;DHT22;8567;52.540;6.434;2024-01-07T00:56:48;18.50;55.80
16901;DHT22;8567;52.540;6.434;2024-01-07T00:59:15;18.50;55.80
16901;DHT22;8567;52.540;6.434;2024-01-07T01:01:44;18.50;55.70
16901;DHT22;8567;52.540;6.434;2024-01-07T01:04:10;18.50;55.80
16901;DHT22;8567;52.540;6.434;2024-01-07T01:06:37;18.50;55.70
16901;DHT22;8567;52.540;6.434;2024-01-07T01:09:05;18.50;55.80
16901;DHT22;8567;52.540;6.434;2024-01-07T01:11:32;18.50;55.90
16901;DHT22;8567;52.540;6.434;2024-01-07T01:13:59;18.50;55.90
16901;DHT22;8567;52.540;6.434;2024-01-07T01:16:26;18.50;55.90
16901;DHT22;8567;52.540;6.434;2024-01-07T01:18:54;18.50;55.80
16901;DHT22;8567;52.540;6.434;2024-01-07T01:21:22;18.50;55.90
16901;DHT22;8567;52.540;6.434;2024-01-07T01:23:48;18.50;55.90
16901;DHT22;8567;52.540;6.434;2024-01-07T01:26:15;18.50;55.90
16901;DHT22;8567;52.540;6.434;2024-01-07T01:28:42;18.50;56.00
16901;DHT22;8567;52.540;6.434;2024-01-07T01:31:13;18.50;56.10
16901;DHT22;8567;52.540;6.434;2024-01-07T01:33:40;18.50;56.10
16901;DHT22;8567;52.540;6.434;2024-01-07T01:36:09;18.50;56.00
16901;DHT22;8567;52.540;6.434;2024-01-07T01:38:36;18.50;56.10
16901;DHT22;8567;52.540;6.434;2024-01-07T01:41:03;18.50;56.00
16901;DHT22;8567;52.540;6.434;2024-01-07T01:43:30;18.50;56.00
16901;DHT22;8567;52.540;6.434;2024-01-07T01:45:58;18.50;56.10
16901;DHT22;8567;52.540;6.434;2024-01-07T01:48:26;18.50;56.10
16901;DHT22;8567;52.540;6.434;2024-01-07T01:51:01;18.50;56.00
16901;DHT22;8567;52.540;6.434;2024-01-07T01:53:31;18.50;56.10
16901;DHT22;8567;52.540;6.434;2024-01-07T01:56:00;18.50;56.10
16901;DHT22;8567;52.540;6.434;2024-01-07T01:58:29;18.50;56.00
16901;DHT22;8567;52.540;6.434;2024-01-07T02:00:56;18.50;56.00
16901;DHT22;8567;52.540;6.434;2024-01-07T02:03:23;18.50;56.00
16901;DHT22;8567;52.540;6.434;2024-01-07T02:05:50;18.50;56.00
16901;DHT22;8567;52.540;6.434;2024-01-07T02:08:18;18.50;56.00
16901;DHT22;8567;52.540;6.434;2024-01-07T02:10:47;18.50;56.10
16901;DHT22;8567;52.540;6.434;2024-01-07T02:13:14;18.50;56.00
16901;DHT22;8567;52.540;6.434;2024-01-07T02:15:40;18.50;56.00
16901;DHT22;8567;52.540;6.434;2024-01-07T02:18:08;18.50;56.10
16901;DHT22;8567;52.540;6.434;2024-01-07T02:20:35;18.50;56.00
16901;DHT22;8567;52.540;6.434;2024-01-07T02:23:02;18.40;55.80
16901;DHT22;8567;52.540;6.434;2024-01-07T02:25:35;18.50;55.70
16901;DHT22;8567;52.540;6.434;2024-01-07T02:28:02;18.40;55.90
16901;DHT22;8567;52.540;6.434;2024-01-07T02:30:28;18.50;56.10
16901;DHT22;8567;52.540;6.434;2024-01-07T02:32:55;18.50;56.20
16901;DHT22;8567;52.540;6.434;2024-01-07T02:35:22;18.50;56.20
16901;DHT22;8567;52.540;6.434;2024-01-07T02:37:49;18.50;56.30
16901;DHT22;8567;52.540;6.434;2024-01-07T02:40:16;18.50;56.40
16901;DHT22;8567;52.540;6.434;2024-01-07T02:42:44;18.50;56.50
16901;DHT22;8567;52.540;6.434;2024-01-07T02:45:11;18.50;56.60
16901;DHT22;8567;52.540;6.434;2024-01-07T02:47:38;18.40;56.60
16901;DHT22;8567;52.540;6.434;2024-01-07T02:50:06;18.50;56.70
16901;DHT22;8567;52.540;6.434;2024-01-07T02:52:33;18.50;56.70
16901;DHT22;8567;52.540;6.434;2024-01-07T02:54:59;18.50;56.90
16901;DHT22;8567;52.540;6.434;2024-01-07T02:57:27;18.50;56.90
16901;DHT22;8567;52.540;6.434;2024-01-07T02:59:55;18.50;56.90
16901;DHT22;8567;52.540;6.434;2024-01-07T03:02:22;18.50;57.00
16901;DHT22;8567;52.540;6.434;2024-01-07T03:04:49;18.50;57.00
16901;DHT22;8567;52.540;6.434;2024-01-07T03:07:16;18.50;57.10
16901;DHT22;8567;52.540;6.434;2024-01-07T03:09:43;18.50;57.10
16901;DHT22;8567;52.540;6.434;2024-01-07T03:12:10;18.50;57.10
16901;DHT22;8567;52.540;6.434;2024-01-07T03:14:37;18.40;57.30
16901;DHT22;8567;52.540;6.434;2024-01-07T03:17:05;18.50;57.20
16901;DHT22;8567;52.540;6.434;2024-01-07T03:19:33;18.50;57.30
16901;DHT22;8567;52.540;6.434;2024-01-07T03:22:00;18.50;57.30
16901;DHT22;8567;52.540;6.434;2024-01-07T03:24:27;18.50;57.40
16901;DHT22;8567;52.540;6.434;2024-01-07T03:26:54;18.50;57.30
16901;DHT22;8567;52.540;6.434;2024-01-07T03:29:21;18.50;57.30
16901;DHT22;8567;52.540;6.434;2024-01-07T03:31:48;18.50;57.40
16901;DHT22;8567;52.540;6.434;2024-01-07T03:34:17;18.40;57.30
16901;DHT22;8567;52.540;6.434;2024-01-07T03:36:44;18.50;57.40
16901;DHT22;8567;52.540;6.434;2024-01-07T03:39:12;18.40;57.40
16901;DHT22;8567;52.540;6.434;2024-01-07T03:41:38;18.40;57.50
16901;DHT22;8567;52.540;6.434;2024-01-07T03:44:08;18.50;57.50
16901;DHT22;8567;52.540;6.434;2024-01-07T03:46:34;18.40;57.40
16901;DHT22;8567;52.540;6.434;2024-01-07T03:49:01;18.50;57.40
16901;DHT22;8567;52.540;6.434;2024-01-07T03:51:29;18.50;57.40
16901;DHT22;8567;52.540;6.434;2024-01-07T03:53:56;18.40;57.40
16901;DHT22;8567;52.540;6.434;2024-01-07T03:56:23;18.40;57.50
16901;DHT22;8567;52.540;6.434;2024-01-07T03:58:50;18.40;57.50
16901;DHT22;8567;52.540;6.434;2024-01-07T04:01:17;18.40;57.50
16901;DHT22;8567;52.540;6.434;2024-01-07T04:03:44;18.50;57.50
16901;DHT22;8567;52.540;6.434;2024-01-07T04:06:12;18.40;57.50
16901;DHT22;8567;52.540;6.434;2024-01-07T04:08:40;18.40;57.40
16901;DHT22;8567;52.540;6.434;2024-01-07T04:11:07;18.50;57.30
16901;DHT22;8567;52.540;6.434;2024-01-07T04:13:34;18.50;57.40
16901;DHT22;8567;52.540;6.434;2024-01-07T04:16:01;18.50;57.50
16901;DHT22;8567;52.540;6.434;2024-01-07T04:18:28;18.40;57.40
16901;DHT22;8567;52.540;6.434;2024-01-07T04:20:54;18.50;57.50
16901;DHT22;8567;52.540;6.434;2024-01-07T04:23:21;18.40;57.50
16901;DHT22;8567;52.540;6.434;2024-01-07T04:25:49;18.40;57.50
16901;DHT22;8567;52.540;6.434;2024-01-07T04:28:16;18.40;57.50
16901;DHT22;8567;52.540;6.434;2024-01-07T04:30:44;18.40;57.60
16901;DHT22;8567;52.540;6.434;2024-01-07T04:33:11;18.50;57.50
16901;DHT22;8567;52.540;6.434;2024-01-07T04:35:38;18.40;57.50
16901;DHT22;8567;52.540;6.434;2024-01-07T04:38:05;18.40;57.60
16901;DHT22;8567;52.540;6.434;2024-01-07T04:40:33;18.40;57.50
16901;DHT22;8567;52.540;6.434;2024-01-07T04:43:01;18.40;57.50
16901;DHT22;8567;52.540;6.434;2024-01-07T04:45:28;18.40;57.50
16901;DHT22;8567;52.540;6.434;2024-01-07T04:47:55;18.40;57.50
16901;DHT22;8567;52.540;6.434;2024-01-07T04:50:22;18.40;57.50
16901;DHT22;8567;52.540;6.434;2024-01-07T04:52:49;18.40;57.40
16901;DHT22;8567;52.540;6.434;2024-01-07T04:55:16;18.40;57.50
16901;DHT22;8567;52.540;6.434;2024-01-07T04:57:43;18.40;57.50
16901;DHT22;8567;52.540;6.434;2024-01-07T05:00:12;18.40;57.50
16901;DHT22;8567;52.540;6.434;2024-01-07T05:02:39;18.40;57.50
16901;DHT22;8567;52.540;6.434;2024-01-07T05:05:08;18.40;57.50
16901;DHT22;8567;52.540;6.434;2024-01-07T05:07:35;18.40;57.50
16901;DHT22;8567;52.540;6.434;2024-01-07T05:10:02;18.40;57.50
16901;DHT22;8567;52.540;6.434;2024-01-07T05:12:29;18.40;57.50
16901;DHT22;8567;52.540;6.434;2024-01-07T05:14:57;18.40;57.50
16901;DHT22;8567;52.540;6.434;2024-01-07T05:17:25;18.40;57.50
16901;DHT22;8567;52.540;6.434;2024-01-07T05:19:52;18.40;57.50
16901;DHT22;8567;52.540;6.434;2024-01-07T05:22:18;18.40;57.40
16901;DHT22;8567;52.540;6.434;2024-01-07T05:24:45;18.40;57.50
16901;DHT22;8567;52.540;6.434;2024-01-07T05:27:12;18.40;57.40
16901;DHT22;8567;52.540;6.434;2024-01-07T05:29:39;18.40;57.50
16901;DHT22;8567;52.540;6.434;2024-01-07T05:32:06;18.40;57.50
16901;DHT22;8567;52.540;6.434;2024-01-07T05:34:34;18.40;57.50
16901;DHT22;8567;52.540;6.434;2024-01-07T05:37:01;18.40;57.40
16901;DHT22;8567;52.540;6.434;2024-01-07T05:39:28;18.40;57.40
16901;DHT22;8567;52.540;6.434;2024-01-07T05:41:55;18.40;57.40
16901;DHT22;8567;52.540;6.434;2024-01-07T05:44:22;18.40;57.40
16901;DHT22;8567;52.540;6.434;2024-01-07T05:46:49;18.40;57.40
16901;DHT22;8567;52.540;6.434;2024-01-07T05:49:16;18.40;57.40
16901;DHT22;8567;52.540;6.434;2024-01-07T05:51:44;18.40;57.40
16901;DHT22;8567;52.540;6.434;2024-01-07T05:54:10;18.40;57.40
16901;DHT22;8567;52.540;6.434;2024-01-07T05:56:41;18.40;57.40
16901;DHT22;8567;52.540;6.434;2024-01-07T05:59:08;18.40;57.40
16901;DHT22;8567;52.540;6.434;2024-01-07T06:01:35;18.40;57.40
16901;DHT22;8567;52.540;6.434;2024-01-07T06:04:02;18.40;57.30
16901;DHT22;8567;52.540;6.434;2024-01-07T06:06:29;18.40;57.30
16901;DHT22;8567;52.540;6.434;2024-01-07T06:08:58;18.40;57.30
16901;DHT22;8567;52.540;6.434;2024-01-07T06:11:25;18.40;57.30
16901;DHT22;8567;52.540;6.434;2024-01-07T06:13:52;18.40;57.20
16901;DHT22;8567;52.540;6.434;2024-01-07T06:16:19;18.40;57.30
16901;DHT22;8567;52.540;6.434;2024-01-07T06:18:46;18.40;57.40
16901;DHT22;8567;52.540;6.434;2024-01-07T06:21:13;18.40;57.40
16901;DHT22;8567;52.540;6.434;2024-01-07T06:23:40;18.40;57.40
16901;DHT22;8567;52.540;6.434;2024-01-07T06:26:08;18.40;57.40
16901;DHT22;8567;52.540;6.434;2024-01-07T06:28:35;18.40;57.40
16901;DHT22;8567;52.540;6.434;2024-01-07T06:31:03;18.40;57.40
16901;DHT22;8567;52.540;6.434;2024-01-07T06:33:31;18.40;57.40
16901;DHT22;8567;52.540;6.434;2024-01-07T06:35:58;18.40;57.40
16901;DHT22;8567;52.540;6.434;2024-01-07T06:38:26;18.40;57.40
16901;DHT22;8567;52.540;6.434;2024-01-07T06:40:53;18.40;57.40
16901;DHT22;8567;52.540;6.434;2024-01-07T06:43:27;18.40;57.30
16901;DHT22;8567;52.540;6.434;2024-01-07T06:45:55;18.40;57.30
16901;DHT22;8567;52.540;6.434;2024-01-07T06:48:22;18.40;57.30
16901;DHT22;8567;52.540;6.434;2024-01-07T06:50:49;18.40;57.30
16901;DHT22;8567;52.540;6.434;2024-01-07T06:53:16;18.40;57.30
16901;DHT22;8567;52.540;6.434;2024-01-07T06:55:43;18.40;57.20
16901;DHT22;8567;52.540;6.434;2024-01-07T06:58:10;18.40;57.00
16901;DHT22;8567;52.540;6.434;2024-01-07T07:00:39;18.40;56.90
16901;DHT22;8567;52.540;6.434;2024-01-07T07:03:06;18.40;57.00
16901;DHT22;8567;52.540;6.434;2024-01-07T07:05:33;18.40;57.00
16901;DHT22;8567;52.540;6.434;2024-01-07T07:08:01;18.40;56.90
16901;DHT22;8567;52.540;6.434;2024-01-07T07:10:28;18.40;56.70
16901;DHT22;8567;52.540;6.434;2024-01-07T07:12:57;18.40;56.70
16901;DHT22;8567;52.540;6.434;2024-01-07T07:15:24;18.40;56.70
16901;DHT22;8567;52.540;6.434;2024-01-07T07:17:53;18.40;56.70
16901;DHT22;8567;52.540;6.434;2024-01-07T07:20:20;18.40;56.80
16901;DHT22;8567;52.540;6.434;2024-01-07T07:22:47;18.40;56.80
16901;DHT22;8567;52.540;6.434;2024-01-07T07:25:14;18.40;56.70
16901;DHT22;8567;52.540;6.434;2024-01-07T07:27:41;18.40;56.70
16901;DHT22;8567;52.540;6.434;2024-01-07T07:30:09;18.40;56.80
16901;DHT22;8567;52.540;6.434;2024-01-07T07:32:39;18.40;56.60
16901;DHT22;8567;52.540;6.434;2024-01-07T07:35:08;18.40;56.70
16901;DHT22;8567;52.540;6.434;2024-01-07T07:37:35;18.40;56.50
16901;DHT22;8567;52.540;6.434;2024-01-07T07:40:02;18.40;56.60
16901;DHT22;8567;52.540;6.434;2024-01-07T07:42:29;18.40;56.60
16901;DHT22;8567;52.540;6.434;2024-01-07T07:44:56;18.40;56.70
16901;DHT22;8567;52.540;6.434;2024-01-07T07:47:24;18.40;56.60
16901;DHT22;8567;52.540;6.434;2024-01-07T07:49:51;18.40;56.50
16901;DHT22;8567;52.540;6.434;2024-01-07T07:52:19;18.40;56.30
16901;DHT22;8567;52.540;6.434;2024-01-07T07:54:49;18.40;56.10
16901;DHT22;8567;52.540;6.434;2024-01-07T07:57:16;18.40;55.90
16901;DHT22;8567;52.540;6.434;2024-01-07T07:59:42;18.40;55.50
16901;DHT22;8567;52.540;6.434;2024-01-07T08:02:09;18.40;55.40
16901;DHT22;8567;52.540;6.434;2024-01-07T08:04:36;18.40;55.20
16901;DHT22;8567;52.540;6.434;2024-01-07T08:07:06;18.40;55.10
16901;DHT22;8567;52.540;6.434;2024-01-07T08:09:36;18.40;55.00
16901;DHT22;8567;52.540;6.434;2024-01-07T08:12:04;18.40;54.90
16901;DHT22;8567;52.540;6.434;2024-01-07T08:14:31;18.40;54.90
16901;DHT22;8567;52.540;6.434;2024-01-07T08:17:01;18.40;54.80
16901;DHT22;8567;52.540;6.434;2024-01-07T08:19:31;18.40;54.80
16901;DHT22;8567;52.540;6.434;2024-01-07T08:21:58;18.40;54.70
16901;DHT22;8567;52.540;6.434;2024-01-07T08:24:25;18.40;54.50
16901;DHT22;8567;52.540;6.434;2024-01-07T08:26:54;18.40;54.50
16901;DHT22;8567;52.540;6.434;2024-01-07T08:29:21;18.40;54.50
16901;DHT22;8567;52.540;6.434;2024-01-07T08:31:48;18.40;54.50
16901;DHT22;8567;52.540;6.434;2024-01-07T08:34:15;18.40;54.50
16901;DHT22;8567;52.540;6.434;2024-01-07T08:36:42;18.40;54.30
16901;DHT22;8567;52.540;6.434;2024-01-07T08:39:09;18.40;54.40
16901;DHT22;8567;52.540;6.434;2024-01-07T08:41:36;18.40;54.40
16901;DHT22;8567;52.540;6.434;2024-01-07T08:44:05;18.40;54.30
16901;DHT22;8567;52.540;6.434;2024-01-07T08:46:33;18.40;54.30
16901;DHT22;8567;52.540;6.434;2024-01-07T08:49:02;18.40;54.30
16901;DHT22;8567;52.540;6.434;2024-01-07T08:51:29;18.40;54.30
16901;DHT22;8567;52.540;6.434;2024-01-07T08:53:57;18.40;54.40
16901;DHT22;8567;52.540;6.434;2024-01-07T08:56:24;18.40;54.40
16901;DHT22;8567;52.540;6.434;2024-01-07T08:58:51;18.40;54.60
16901;DHT22;8567;52.540;6.434;2024-01-07T09:01:20;18.40;54.60
16901;DHT22;8567;52.540;6.434;2024-01-07T09:03:46;18.40;54.70
16901;DHT22;8567;52.540;6.434;2024-01-07T09:06:12;18.30;54.70
16901;DHT22;8567;52.540;6.434;2024-01-07T09:08:39;18.30;54.80
16901;DHT22;8567;52.540;6.434;2024-01-07T09:11:07;18.30;54.70
16901;DHT22;8567;52.540;6.434;2024-01-07T09:13:36;18.30;54.80
16901;DHT22;8567;52.540;6.434;2024-01-07T09:16:04;18.30;54.80
16901;DHT22;8567;52.540;6.434;2024-01-07T09:18:32;18.30;54.80
16901;DHT22;8567;52.540;6.434;2024-01-07T09:20:59;18.30;54.60
16901;DHT22;8567;52.540;6.434;2024-01-07T09:23:26;18.30;54.60
16901;DHT22;8567;52.540;6.434;2024-01-07T09:25:53;18.30;54.90
16901;DHT22;8567;52.540;6.434;2024-01-07T09:28:20;18.30;55.60
16901;DHT22;8567;52.540;6.434;2024-01-07T09:30:47;18.30;55.70
16901;DHT22;8567;52.540;6.434;2024-01-07T09:33:14;18.30;55.10
16901;DHT22;8567;52.540;6.434;2024-01-07T09:35:43;18.30;55.10
16901;DHT22;8567;52.540;6.434;2024-01-07T09:38:10;18.30;55.10
16901;DHT22;8567;52.540;6.434;2024-01-07T09:40:38;18.30;55.00
16901;DHT22;8567;52.540;6.434;2024-01-07T09:43:08;18.30;55.00
16901;DHT22;8567;52.540;6.434;2024-01-07T09:45:36;18.30;54.80
16901;DHT22;8567;52.540;6.434;2024-01-07T09:48:05;18.30;55.90
16901;DHT22;8567;52.540;6.434;2024-01-07T09:50:32;18.30;58.00
16901;DHT22;8567;52.540;6.434;2024-01-07T09:53:02;18.30;59.20
16901;DHT22;8567;52.540;6.434;2024-01-07T09:55:33;18.30;59.30
16901;DHT22;8567;52.540;6.434;2024-01-07T09:58:06;18.40;59.80
16901;DHT22;8567;52.540;6.434;2024-01-07T10:00:33;18.40;60.20
16901;DHT22;8567;52.540;6.434;2024-01-07T10:03:01;18.40;60.40
16901;DHT22;8567;52.540;6.434;2024-01-07T10:05:28;18.40;60.50
16901;DHT22;8567;52.540;6.434;2024-01-07T10:07:55;18.40;60.00
16901;DHT22;8567;52.540;6.434;2024-01-07T10:10:24;18.50;60.20
16901;DHT22;8567;52.540;6.434;2024-01-07T10:12:51;18.50;60.00
16901;DHT22;8567;52.540;6.434;2024-01-07T10:15:18;18.40;59.90
16901;DHT22;8567;52.540;6.434;2024-01-07T10:17:45;18.50;59.90
16901;DHT22;8567;52.540;6.434;2024-01-07T10:20:16;18.50;59.70
16901;DHT22;8567;52.540;6.434;2024-01-07T10:22:47;18.50;59.60
16901;DHT22;8567;52.540;6.434;2024-01-07T10:25:16;18.50;59.40
16901;DHT22;8567;52.540;6.434;2024-01-07T10:27:46;18.50;59.20
16901;DHT22;8567;52.540;6.434;2024-01-07T10:30:15;18.50;59.10
16901;DHT22;8567;52.540;6.434;2024-01-07T10:32:42;18.50;59.30
16901;DHT22;8567;52.540;6.434;2024-01-07T10:35:12;18.50;59.90
16901;DHT22;8567;52.540;6.434;2024-01-07T10:37:41;18.50;60.10
16901;DHT22;8567;52.540;6.434;2024-01-07T10:40:11;18.50;59.50
16901;DHT22;8567;52.540;6.434;2024-01-07T10:42:38;18.50;59.60
16901;DHT22;8567;52.540;6.434;2024-01-07T10:45:08;18.50;58.90
16901;DHT22;8567;52.540;6.434;2024-01-07T10:47:36;18.50;58.70
16901;DHT22;8567;52.540;6.434;2024-01-07T10:50:04;18.50;58.30
16901;DHT22;8567;52.540;6.434;2024-01-07T10:52:34;18.50;58.30
16901;DHT22;8567;52.540;6.434;2024-01-07T10:55:09;18.50;58.10
16901;DHT22;8567;52.540;6.434;2024-01-07T10:57:42;18.50;57.60
16901;DHT22;8567;52.540;6.434;2024-01-07T11:00:13;18.40;57.30
16901;DHT22;8567;52.540;6.434;2024-01-07T11:02:55;18.40;57.00
16901;DHT22;8567;52.540;6.434;2024-01-07T11:05:29;18.40;55.00
16901;DHT22;8567;52.540;6.434;2024-01-07T11:08:03;18.40;53.80
16901;DHT22;8567;52.540;6.434;2024-01-07T11:10:37;18.40;54.50
16901;DHT22;8567;52.540;6.434;2024-01-07T11:13:05;18.40;54.20
16901;DHT22;8567;52.540;6.434;2024-01-07T11:15:52;18.40;53.70
16901;DHT22;8567;52.540;6.434;2024-01-07T11:18:21;18.40;54.30
16901;DHT22;8567;52.540;6.434;2024-01-07T11:20:48;18.40;54.40
16901;DHT22;8567;52.540;6.434;2024-01-07T11:23:28;18.40;54.30
16901;DHT22;8567;52.540;6.434;2024-01-07T11:25:57;18.40;54.10
16901;DHT22;8567;52.540;6.434;2024-01-07T11:28:46;18.30;54.20
16901;DHT22;8567;52.540;6.434;2024-01-07T11:31:16;18.40;54.20
16901;DHT22;8567;52.540;6.434;2024-01-07T11:33:44;18.30;54.40
16901;DHT22;8567;52.540;6.434;2024-01-07T11:36:13;18.30;54.20
16901;DHT22;8567;52.540;6.434;2024-01-07T11:38:43;18.30;53.10
16901;DHT22;8567;52.540;6.434;2024-01-07T11:41:12;18.30;53.10
16901;DHT22;8567;52.540;6.434;2024-01-07T11:43:52;18.30;52.30
16901;DHT22;8567;52.540;6.434;2024-01-07T11:46:21;18.20;52.10
16901;DHT22;8567;52.540;6.434;2024-01-07T11:48:49;18.20;51.90
16901;DHT22;8567;52.540;6.434;2024-01-07T11:51:16;18.20;53.10
16901;DHT22;8567;52.540;6.434;2024-01-07T11:53:46;18.30;53.30
16901;DHT22;8567;52.540;6.434;2024-01-07T11:56:14;18.30;54.00
16901;DHT22;8567;52.540;6.434;2024-01-07T11:58:41;18.30;54.50
16901;DHT22;8567;52.540;6.434;2024-01-07T12:01:09;18.30;54.40
16901;DHT22;8567;52.540;6.434;2024-01-07T12:03:37;18.30;54.40
16901;DHT22;8567;52.540;6.434;2024-01-07T12:06:07;18.30;54.50
16901;DHT22;8567;52.540;6.434;2024-01-07T12:08:34;18.30;54.60
16901;DHT22;8567;52.540;6.434;2024-01-07T12:11:02;18.30;54.30
16901;DHT22;8567;52.540;6.434;2024-01-07T12:13:29;18.30;54.70
16901;DHT22;8567;52.540;6.434;2024-01-07T12:15:57;18.30;55.00
16901;DHT22;8567;52.540;6.434;2024-01-07T12:18:24;18.30;55.40
16901;DHT22;8567;52.540;6.434;2024-01-07T12:20:56;18.30;54.10
16901;DHT22;8567;52.540;6.434;2024-01-07T12:23:24;18.30;54.40
16901;DHT22;8567;52.540;6.434;2024-01-07T12:25:51;18.30;54.40
16901;DHT22;8567;52.540;6.434;2024-01-07T12:28:18;18.30;54.20
16901;DHT22;8567;52.540;6.434;2024-01-07T12:30:47;18.30;54.30
16901;DHT22;8567;52.540;6.434;2024-01-07T12:33:16;18.30;54.90
16901;DHT22;8567;52.540;6.434;2024-01-07T12:35:45;18.30;54.80
16901;DHT22;8567;52.540;6.434;2024-01-07T12:38:13;18.30;54.60
16901;DHT22;8567;52.540;6.434;2024-01-07T12:40:41;18.30;54.40
16901;DHT22;8567;52.540;6.434;2024-01-07T12:43:07;18.30;54.50
16901;DHT22;8567;52.540;6.434;2024-01-07T12:45:34;18.30;54.50
16901;DHT22;8567;52.540;6.434;2024-01-07T12:48:02;18.30;54.20
16901;DHT22;8567;52.540;6.434;2024-01-07T12:50:28;18.30;54.40
16901;DHT22;8567;52.540;6.434;2024-01-07T12:52:57;18.30;54.20
16901;DHT22;8567;52.540;6.434;2024-01-07T12:55:26;18.30;54.00
16901;DHT22;8567;52.540;6.434;2024-01-07T12:57:53;18.30;53.80
16901;DHT22;8567;52.540;6.434;2024-01-07T13:00:20;18.30;53.80
16901;DHT22;8567;52.540;6.434;2024-01-07T13:02:49;18.30;53.80
16901;DHT22;8567;52.540;6.434;2024-01-07T13:05:16;18.30;53.70
16901;DHT22;8567;52.540;6.434;2024-01-07T13:07:44;18.30;53.60
16901;DHT22;8567;52.540;6.434;2024-01-07T13:10:11;18.30;53.40
16901;DHT22;8567;52.540;6.434;2024-01-07T13:12:39;18.30;53.30
16901;DHT22;8567;52.540;6.434;2024-01-07T13:15:07;18.30;53.30
16901;DHT22;8567;52.540;6.434;2024-01-07T13:17:34;18.30;52.60
16901;DHT22;8567;52.540;6.434;2024-01-07T13:20:01;18.30;52.60
16901;DHT22;8567;52.540;6.434;2024-01-07T13:22:32;18.30;52.70
16901;DHT22;8567;52.540;6.434;2024-01-07T13:25:00;18.30;52.80
16901;DHT22;8567;52.540;6.434;2024-01-07T13:27:26;18.30;52.80
16901;DHT22;8567;52.540;6.434;2024-01-07T13:29:55;18.30;52.60
16901;DHT22;8567;52.540;6.434;2024-01-07T13:32:21;18.40;51.90
16901;DHT22;8567;52.540;6.434;2024-01-07T13:34:48;18.30;52.10
16901;DHT22;8567;52.540;6.434;2024-01-07T13:37:17;18.30;52.50
16901;DHT22;8567;52.540;6.434;2024-01-07T13:39:46;18.30;52.30
16901;DHT22;8567;52.540;6.434;2024-01-07T13:42:14;18.30;52.30
16901;DHT22;8567;52.540;6.434;2024-01-07T13:44:41;18.30;52.30
16901;DHT22;8567;52.540;6.434;2024-01-07T13:47:13;18.30;52.30
16901;DHT22;8567;52.540;6.434;2024-01-07T13:49:40;18.30;51.80
16901;DHT22;8567;52.540;6.434;2024-01-07T13:52:07;18.30;52.10
16901;DHT22;8567;52.540;6.434;2024-01-07T13:54:35;18.30;52.00
16901;DHT22;8567;52.540;6.434;2024-01-07T13:57:03;18.30;52.00
16901;DHT22;8567;52.540;6.434;2024-01-07T13:59:29;18.30;51.40
16901;DHT22;8567;52.540;6.434;2024-01-07T14:01:57;18.30;50.70
16901;DHT22;8567;52.540;6.434;2024-01-07T14:04:26;18.40;50.30
16901;DHT22;8567;52.540;6.434;2024-01-07T14:06:54;18.40;50.30
16901;DHT22;8567;52.540;6.434;2024-01-07T14:09:21;18.40;50.30
16901;DHT22;8567;52.540;6.434;2024-01-07T14:11:48;18.40;50.50
16901;DHT22;8567;52.540;6.434;2024-01-07T14:14:15;18.40;50.60
16901;DHT22;8567;52.540;6.434;2024-01-07T14:16:42;18.40;50.50
16901;DHT22;8567;52.540;6.434;2024-01-07T14:19:10;18.30;50.40
16901;DHT22;8567;52.540;6.434;2024-01-07T14:21:38;18.30;50.30
16901;DHT22;8567;52.540;6.434;2024-01-07T14:24:06;18.30;50.70
16901;DHT22;8567;52.540;6.434;2024-01-07T14:26:33;18.30;50.00
16901;DHT22;8567;52.540;6.434;2024-01-07T14:29:00;18.30;50.50
16901;DHT22;8567;52.540;6.434;2024-01-07T14:31:27;18.30;50.70
16901;DHT22;8567;52.540;6.434;2024-01-07T14:33:54;18.30;50.50
16901;DHT22;8567;52.540;6.434;2024-01-07T14:36:21;18.30;50.80
16901;DHT22;8567;52.540;6.434;2024-01-07T14:38:50;18.30;51.20
16901;DHT22;8567;52.540;6.434;2024-01-07T14:41:17;18.30;51.20
16901;DHT22;8567;52.540;6.434;2024-01-07T14:43:44;18.30;51.20
16901;DHT22;8567;52.540;6.434;2024-01-07T14:46:11;18.30;51.70
16901;DHT22;8567;52.540;6.434;2024-01-07T14:48:38;18.30;51.40
16901;DHT22;8567;52.540;6.434;2024-01-07T14:51:05;18.30;51.20
16901;DHT22;8567;52.540;6.434;2024-01-07T14:53:33;18.30;51.20
16901;DHT22;8567;52.540;6.434;2024-01-07T14:56:01;18.30;50.50
16901;DHT22;8567;52.540;6.434;2024-01-07T14:58:28;18.30;51.00
16901;DHT22;8567;52.540;6.434;2024-01-07T15:00:54;18.30;51.00
16901;DHT22;8567;52.540;6.434;2024-01-07T15:03:23;18.30;50.30
16901;DHT22;8567;52.540;6.434;2024-01-07T15:05:50;18.30;50.30
16901;DHT22;8567;52.540;6.434;2024-01-07T15:08:17;18.30;50.00
16901;DHT22;8567;52.540;6.434;2024-01-07T15:10:44;18.30;49.90
16901;DHT22;8567;52.540;6.434;2024-01-07T15:13:12;18.30;49.90
16901;DHT22;8567;52.540;6.434;2024-01-07T15:15:39;18.30;50.00
16901;DHT22;8567;52.540;6.434;2024-01-07T15:18:07;18.30;49.90
16901;DHT22;8567;52.540;6.434;2024-01-07T15:20:34;18.20;49.60
16901;DHT22;8567;52.540;6.434;2024-01-07T15:23:01;18.20;49.40
16901;DHT22;8567;52.540;6.434;2024-01-07T15:25:29;18.20;49.60
16901;DHT22;8567;52.540;6.434;2024-01-07T15:27:56;18.30;49.80
16901;DHT22;8567;52.540;6.434;2024-01-07T15:30:24;18.20;49.70
16901;DHT22;8567;52.540;6.434;2024-01-07T15:32:51;18.30;49.60
16901;DHT22;8567;52.540;6.434;2024-01-07T15:35:18;18.20;50.20
16901;DHT22;8567;52.540;6.434;2024-01-07T15:37:46;18.20;49.90
16901;DHT22;8567;52.540;6.434;2024-01-07T15:40:14;18.20;50.50
16901;DHT22;8567;52.540;6.434;2024-01-07T15:42:41;18.20;49.60
16901;DHT22;8567;52.540;6.434;2024-01-07T15:45:09;18.20;49.80
16901;DHT22;8567;52.540;6.434;2024-01-07T15:47:37;18.20;50.30